Time;durP1;ratioP1;P1;durP2;ratioP2;P2;SDS_P1;SDS_P2;PMS_P1;PMS_P2;Temp;Humidity;BMP_temperature;BMP_pressure;BME280_temperature;BME280_humidity;BME280_pressure;Samples;Min_cycle;Max_cycle;Signal;HPM_P1;HPM_P2
2021/03/12 00:00:40;;;;;;;;;;;;;;;;;;5082454;28;20314;-78
2021/03/12 00:03:07;;;;;;;;;;;;;;;;;;5078434;28;19921;-78
2021/03/12 00:05:34;;;;;;;;;;;;;;;;;;5081428;28;20273;-78
2021/03/12 00:08:00;;;;;;;;;;;;;;;;;;5077002;28;19935;-77
2021/03/12 00:10:27;;;;;;;;;;;;;;;;;;5081129;28;20282;-78
2021/03/12 00:12:54;;;;;;;;;;;;;;;;;;5081862;28;19920;-78
2021/03/12 00:15:21;;;;;;;;;;;;;;;;;;5082168;28;19920;-78
2021/03/12 00:17:48;;;;;;;;;;;;;;;;;;5084824;28;19943;-77
2021/03/12 00:20:15;;;;;;;;;;;;;;;;;;5084834;28;19921;-78
2021/03/12 00:22:42;;;;;;;;;;;;;;;;;;5081857;28;19920;-77
2021/03/12 00:25:09;;;;;;;;;;;;;;;;;;5082473;28;19925;-78
2021/03/12 00:27:35;;;;;;;;;;;;;;;;;;5082023;28;19920;-78
2021/03/12 00:30:02;;;;;;;;;;;;;;;;;;5082564;28;19920;-77
2021/03/12 00:32:30;;;;;;;;;;;;;;;;;;5087620;28;19912;-77
2021/03/12 00:34:57;;;;;;;;;;;;;;;;;;5087723;28;19920;-77
2021/03/12 00:37:24;;;;;;;;;;;;;;;;;;5086308;28;19920;-77
2021/03/12 00:39:52;;;;;;;;;;;;;;;;;;5089065;28;19990;-77
2021/03/12 00:42:19;;;;;;;;;;;;;;;;;;5088590;28;19924;-78
2021/03/12 00:44:54;;;;;;;;;;;;;;;;;;5083674;28;20406;-77
2021/03/12 00:47:28;;;;;;;;;;;;;;;;;;5085121;28;19924;-78
2021/03/12 00:50:07;;;;;;;;;;;;;;;;;;5087501;28;19978;-76
2021/03/12 00:52:39;;;;;;;;;;;;;;;;;;5089731;28;19927;-78
2021/03/12 00:55:06;;;;;;;;;;;;;;;;;;5086469;28;19905;-78
2021/03/12 00:57:34;;;;;;;;;;;;;;;;;;5067095;28;19988;-77
2021/03/12 01:00:01;;;;;;;;;;;;;;;;;;5084437;28;19920;-77
2021/03/12 01:02:30;;;;;;;;;;;;;;;;;;5081668;28;20014;-78
2021/03/12 01:04:58;;;;;;;;;;;;;;;;;;5081660;28;19935;-78
2021/03/12 01:07:27;;;;;;;;;;;;;;;;;;5080678;28;19921;-77
2021/03/12 01:09:54;;;;;;;;;;;;;;;;;;5079533;28;19927;-78
2021/03/12 01:12:20;;;;;;;;;;;;;;;;;;5086370;28;19987;-78
2021/03/12 01:14:47;;;;;;;;;;;;;;;;;;5083076;28;19911;-78
2021/03/12 01:17:14;;;;;;;;;;;;;;;;;;5065478;28;19942;-78
2021/03/12 01:19:50;;;;;;;;;;;;;;;;;;5081122;28;19920;-78
2021/03/12 01:22:18;;;;;;;;;;;;;;;;;;5081338;28;19920;-79
2021/03/12 01:24:49;;;;;;;;;;;;;;;;;;5081797;28;19920;-78
2021/03/12 01:27:16;;;;;;;;;;;;;;;;;;5065043;28;19934;-77
2021/03/12 01:29:44;;;;;;;;;;;;;;;;;;5078085;28;21849;-78
2021/03/12 01:32:10;;;;;;;;;;;;;;;;;;5076745;28;20007;-78
2021/03/12 01:34:37;;;;;;;;;;;;;;;;;;5078520;28;20370;-78
2021/03/12 01:37:04;;;;;;;;;;;;;;;;;;5077694;28;19924;-78
2021/03/12 01:39:30;;;;;;;;;;;;;;;;;;5079721;28;19925;-79
2021/03/12 01:41:58;;;;;;;;;;;;;;;;;;5078993;28;19963;-78
2021/03/12 01:44:24;;;;;;;;;;;;;;;;;;5077274;28;19928;-79
2021/03/12 01:46:52;;;;;;;;;;;;;;;;;;5078252;28;19931;-78
2021/03/12 01:49:18;;;;;;;;;;;;;;;;;;5077834;28;19925;-78
2021/03/12 01:51:45;;;;;;;;;;;;;;;;;;5077891;28;19925;-79
2021/03/12 01:54:11;;;;;;;;;;;;;;;;;;5078781;28;19924;-79
2021/03/12 01:56:38;;;;;;;;;;;;;;;;;;5078217;28;19924;-79
2021/03/12 01:59:05;;;;;;;;;;;;;;;;;;5077665;28;20328;-79
2021/03/12 02:01:32;;;;;;;;;;;;;;;;;;5079191;28;20010;-79
2021/03/12 02:03:59;;;;;;;;;;;;;;;;;;5080091;28;19970;-79
2021/03/12 02:06:25;;;;;;;;;;;;;;;;;;5079209;28;19930;-80
2021/03/12 02:08:52;;;;;;;;;;;;;;;;;;5080047;28;19908;-79
2021/03/12 02:11:24;;;;;;;;;;;;;;;;;;5081032;28;19928;-78
2021/03/12 02:13:51;;;;;;;;;;;;;;;;;;5084723;28;19931;-79
2021/03/12 02:16:17;;;;;;;;;;;;;;;;;;5084636;28;19978;-79
2021/03/12 02:18:44;;;;;;;;;;;;;;;;;;5089686;28;19931;-79
2021/03/12 02:21:12;;;;;;;;;;;;;;;;;;5081011;28;19924;-79
2021/03/12 02:23:38;;;;;;;;;;;;;;;;;;5086163;28;19931;-79
2021/03/12 02:26:05;;;;;;;;;;;;;;;;;;5088453;28;19947;-79
2021/03/12 02:28:33;;;;;;;;;;;;;;;;;;5090287;28;19932;-80
2021/03/12 02:30:59;;;;;;;;;;;;;;;;;;5086693;28;19928;-79
2021/03/12 02:33:26;;;;;;;;;;;;;;;;;;5084905;28;19924;-78
2021/03/12 02:35:53;;;;;;;;;;;;;;;;;;5090197;28;19925;-79
2021/03/12 02:38:20;;;;;;;;;;;;;;;;;;5085798;28;20414;-79
2021/03/12 02:40:46;;;;;;;;;;;;;;;;;;5084393;28;19924;-79
2021/03/12 02:43:13;;;;;;;;;;;;;;;;;;5086880;28;19924;-79
2021/03/12 02:45:42;;;;;;;;;;;;;;;;;;5085016;28;19932;-79
2021/03/12 02:48:09;;;;;;;;;;;;;;;;;;5084278;28;20367;-80
2021/03/12 02:50:36;;;;;;;;;;;;;;;;;;5087357;28;19925;-79
2021/03/12 02:53:03;;;;;;;;;;;;;;;;;;5089330;28;19914;-79
2021/03/12 02:55:29;;;;;;;;;;;;;;;;;;5088732;28;19951;-79
2021/03/12 02:57:56;;;;;;;;;;;;;;;;;;5087605;28;19930;-79
2021/03/12 03:00:23;;;;;;;;;;;;;;;;;;5083887;28;19932;-79
2021/03/12 03:02:49;;;;;;;;;;;;;;;;;;5083187;28;19932;-79
2021/03/12 03:05:17;;;;;;;;;;;;;;;;;;5081588;28;19970;-79
2021/03/12 03:07:46;;;;;;;;;;;;;;;;;;5081236;28;19924;-79
2021/03/12 03:10:20;;;;;;;;;;;;;;;;;;5081039;28;19968;-79
2021/03/12 03:12:47;;;;;;;;;;;;;;;;;;5081727;28;20027;-80
2021/03/12 03:15:16;;;;;;;;;;;;;;;;;;5081842;28;19928;-78
2021/03/12 03:17:44;;;;;;;;;;;;;;;;;;5080989;28;19924;-79
2021/03/12 03:20:15;;;;;;;;;;;;;;;;;;5084432;28;19925;-79
2021/03/12 03:22:42;;;;;;;;;;;;;;;;;;5081920;28;19935;-80
2021/03/12 03:25:09;;;;;;;;;;;;;;;;;;5084600;28;19932;-79
2021/03/12 03:27:36;;;;;;;;;;;;;;;;;;5083818;28;19925;-78
2021/03/12 03:30:02;;;;;;;;;;;;;;;;;;5085843;28;19924;-79
2021/03/12 03:32:29;;;;;;;;;;;;;;;;;;5087975;28;19924;-78
2021/03/12 03:37:46;;;;;;;;;;;;;;;;;;5089772;28;19924;-78
2021/03/12 03:40:12;;;;;;;;;;;;;;;;;;5081835;28;19924;-78
2021/03/12 03:42:39;;;;;;;;;;;;;;;;;;5083248;28;20404;-78
2021/03/12 03:45:06;;;;;;;;;;;;;;;;;;5082051;28;19924;-77
2021/03/12 03:50:15;;;;;;;;;;;;;;;;;;5081216;28;19979;-78
2021/03/12 03:52:41;;;;;;;;;;;;;;;;;;5080248;28;19931;-78
2021/03/12 03:55:08;;;;;;;;;;;;;;;;;;5078817;28;19932;-77
2021/03/12 03:57:35;;;;;;;;;;;;;;;;;;5082745;28;20363;-78
2021/03/12 04:00:02;;;;;;;;;;;;;;;;;;5079990;28;20373;-78
2021/03/12 04:02:39;;;;;;;;;;;;;;;;;;5079744;28;20388;-77
2021/03/12 04:07:47;;;;;;;;;;;;;;;;;;5090927;28;20374;-77
2021/03/12 04:10:18;;;;;;;;;;;;;;;;;;5092387;28;19925;-77
2021/03/12 04:12:45;;;;;;;;;;;;;;;;;;5086765;28;19947;-77
2021/03/12 04:15:11;;;;;;;;;;;;;;;;;;5084575;28;20393;-76
2021/03/12 04:17:39;;;;;;;;;;;;;;;;;;5083026;28;20301;-76
2021/03/12 04:20:05;;;;;;;;;;;;;;;;;;5082283;28;19932;-77
2021/03/12 04:22:32;;;;;;;;;;;;;;;;;;5081615;28;19924;-78
2021/03/12 04:24:58;;;;;;;;;;;;;;;;;;5081459;28;19924;-78
2021/03/12 04:27:25;;;;;;;;;;;;;;;;;;5077893;28;20366;-78
2021/03/12 04:29:52;;;;;;;;;;;;;;;;;;5076427;28;19924;-78
2021/03/12 04:32:18;;;;;;;;;;;;;;;;;;5075971;28;19932;-78
2021/03/12 04:34:45;;;;;;;;;;;;;;;;;;5076551;28;19924;-78
2021/03/12 04:37:11;;;;;;;;;;;;;;;;;;5076282;28;19970;-78
2021/03/12 04:39:38;;;;;;;;;;;;;;;;;;5075892;28;20320;-78
2021/03/12 04:42:12;;;;;;;;;;;;;;;;;;5075923;28;19932;-78
2021/03/12 04:44:38;;;;;;;;;;;;;;;;;;5076194;28;19924;-78
2021/03/12 04:47:05;;;;;;;;;;;;;;;;;;5075295;28;19931;-78
2021/03/12 04:49:31;;;;;;;;;;;;;;;;;;5076755;28;19924;-78
2021/03/12 04:51:58;;;;;;;;;;;;;;;;;;5075480;28;19925;-77
2021/03/12 04:54:26;;;;;;;;;;;;;;;;;;5077029;28;20282;-78
2021/03/12 04:56:53;;;;;;;;;;;;;;;;;;5075014;28;19929;-78
2021/03/12 04:59:20;;;;;;;;;;;;;;;;;;5076302;28;19928;-78
2021/03/12 05:01:47;;;;;;;;;;;;;;;;;;5079890;28;19925;-78
2021/03/12 05:04:14;;;;;;;;;;;;;;;;;;5078461;28;19925;-78
2021/03/12 05:06:40;;;;;;;;;;;;;;;;;;5078732;28;19924;-78
2021/03/12 05:09:07;;;;;;;;;;;;;;;;;;5078373;28;19956;-78
2021/03/12 05:11:34;;;;;;;;;;;;;;;;;;5076186;28;19928;-78
2021/03/12 05:14:00;;;;;;;;;;;;;;;;;;5076139;28;20337;-76
2021/03/12 05:16:27;;;;;;;;;;;;;;;;;;5075191;28;19924;-77
2021/03/12 05:18:54;;;;;;;;;;;;;;;;;;5074914;28;19925;-77
2021/03/12 05:21:20;;;;;;;;;;;;;;;;;;5074968;28;19935;-77
2021/03/12 05:23:47;;;;;;;;;;;;;;;;;;5074937;28;19932;-76
2021/03/12 05:26:13;;;;;;;;;;;;;;;;;;5074628;28;19924;-77
2021/03/12 05:28:40;;;;;;;;;;;;;;;;;;5074945;28;19982;-78
2021/03/12 05:31:07;;;;;;;;;;;;;;;;;;5074923;28;19931;-77
2021/03/12 05:33:33;;;;;;;;;;;;;;;;;;5075084;28;19931;-77
2021/03/12 05:36:00;;;;;;;;;;;;;;;;;;5074499;28;19983;-76
2021/03/12 05:38:27;;;;;;;;;;;;;;;;;;5074918;28;19991;-77
2021/03/12 05:40:53;;;;;;;;;;;;;;;;;;5082033;28;19924;-76
2021/03/12 05:43:20;;;;;;;;;;;;;;;;;;5074403;28;19929;-76
2021/03/12 05:45:47;;;;;;;;;;;;;;;;;;5074123;28;19999;-76
2021/03/12 05:48:13;;;;;;;;;;;;;;;;;;5074379;28;19924;-76
2021/03/12 05:50:40;;;;;;;;;;;;;;;;;;5073922;28;19936;-76
2021/03/12 05:53:06;;;;;;;;;;;;;;;;;;5074121;28;19954;-76
2021/03/12 05:55:33;;;;;;;;;;;;;;;;;;5077292;28;19971;-76
2021/03/12 05:58:00;;;;;;;;;;;;;;;;;;5076364;28;19928;-77
2021/03/12 06:00:26;;;;;;;;;;;;;;;;;;5078189;28;19924;-77
2021/03/12 06:02:53;;;;;;;;;;;;;;;;;;5078407;28;19931;-76
2021/03/12 06:05:19;;;;;;;;;;;;;;;;;;5078177;28;19928;-76
2021/03/12 06:07:46;;;;;;;;;;;;;;;;;;5078319;28;19925;-76
2021/03/12 06:10:13;;;;;;;;;;;;;;;;;;5077746;28;20381;-76
2021/03/12 06:12:39;;;;;;;;;;;;;;;;;;5078148;28;20336;-76
2021/03/12 06:15:06;;;;;;;;;;;;;;;;;;5078294;28;19978;-76
2021/03/12 06:17:33;;;;;;;;;;;;;;;;;;5078070;28;19924;-76
2021/03/12 06:19:59;;;;;;;;;;;;;;;;;;5077789;28;19928;-76
2021/03/12 06:22:26;;;;;;;;;;;;;;;;;;5077967;28;19925;-79
2021/03/12 06:24:52;;;;;;;;;;;;;;;;;;5078007;28;20277;-77
2021/03/12 06:27:19;;;;;;;;;;;;;;;;;;5077453;28;19932;-76
2021/03/12 06:29:46;;;;;;;;;;;;;;;;;;5074553;28;19929;-74
2021/03/12 06:32:12;;;;;;;;;;;;;;;;;;5076258;28;19931;-76
2021/03/12 06:34:39;;;;;;;;;;;;;;;;;;5077579;28;19925;-76
2021/03/12 06:37:05;;;;;;;;;;;;;;;;;;5077732;28;19925;-76
2021/03/12 06:39:32;;;;;;;;;;;;;;;;;;5077404;28;20373;-76
2021/03/12 06:41:59;;;;;;;;;;;;;;;;;;5078900;28;20271;-76
2021/03/12 06:44:25;;;;;;;;;;;;;;;;;;5077246;28;20302;-76
2021/03/12 06:46:52;;;;;;;;;;;;;;;;;;5077239;28;19932;-76
2021/03/12 06:49:19;;;;;;;;;;;;;;;;;;5077370;28;19994;-76
2021/03/12 06:51:46;;;;;;;;;;;;;;;;;;5079107;28;19970;-77
2021/03/12 06:54:12;;;;;;;;;;;;;;;;;;5078709;28;19925;-76
2021/03/12 06:56:39;;;;;;;;;;;;;;;;;;5077904;28;19947;-75
2021/03/12 06:59:06;;;;;;;;;;;;;;;;;;5078178;28;19932;-75
2021/03/12 07:01:32;;;;;;;;;;;;;;;;;;5077467;28;19924;-75
2021/03/12 07:03:59;;;;;;;;;;;;;;;;;;5076890;28;20390;-75
2021/03/12 07:06:26;;;;;;;;;;;;;;;;;;5076826;28;19925;-75
2021/03/12 07:08:53;;;;;;;;;;;;;;;;;;5076012;28;19924;-75
2021/03/12 07:11:19;;;;;;;;;;;;;;;;;;5059005;28;19924;-75
2021/03/12 07:13:46;;;;;;;;;;;;;;;;;;5059095;28;19932;-75
2021/03/12 07:16:13;;;;;;;;;;;;;;;;;;5078302;28;19925;-75
2021/03/12 07:18:39;;;;;;;;;;;;;;;;;;5079018;28;19931;-75
2021/03/12 07:21:06;;;;;;;;;;;;;;;;;;5078429;28;19970;-75
2021/03/12 07:23:34;;;;;;;;;;;;;;;;;;5083385;28;19959;-75
2021/03/12 07:26:04;;;;;;;;;;;;;;;;;;5085978;28;20397;-75
2021/03/12 07:28:31;;;;;;;;;;;;;;;;;;5084676;28;20389;-75
2021/03/12 07:30:58;;;;;;;;;;;;;;;;;;5085034;28;19924;-75
2021/03/12 07:33:38;;;;;;;;;;;;;;;;;;5084464;28;19925;-75
2021/03/12 07:36:08;;;;;;;;;;;;;;;;;;5087552;28;19930;-75
2021/03/12 07:38:35;;;;;;;;;;;;;;;;;;5085219;28;19932;-75
2021/03/12 07:41:07;;;;;;;;;;;;;;;;;;5084061;28;19983;-75
2021/03/12 07:43:34;;;;;;;;;;;;;;;;;;5084220;28;19924;-75
2021/03/12 07:46:00;;;;;;;;;;;;;;;;;;5080743;28;19998;-76
2021/03/12 07:48:27;;;;;;;;;;;;;;;;;;5079772;28;19931;-76
2021/03/12 07:50:54;;;;;;;;;;;;;;;;;;5078123;28;19978;-75
2021/03/12 07:53:20;;;;;;;;;;;;;;;;;;5077834;28;19928;-76
2021/03/12 07:55:48;;;;;;;;;;;;;;;;;;5077773;28;19924;-76
2021/03/12 07:58:20;;;;;;;;;;;;;;;;;;5079581;28;20368;-76
2021/03/12 08:00:49;;;;;;;;;;;;;;;;;;5079635;28;20370;-76
2021/03/12 08:03:15;;;;;;;;;;;;;;;;;;5078965;28;19924;-77
2021/03/12 08:05:42;;;;;;;;;;;;;;;;;;5065773;28;19931;-77
2021/03/12 08:08:09;;;;;;;;;;;;;;;;;;5080801;28;20399;-76
2021/03/12 08:10:36;;;;;;;;;;;;;;;;;;5080334;28;19924;-76
2021/03/12 08:13:03;;;;;;;;;;;;;;;;;;5075388;28;19978;-78
2021/03/12 08:15:30;;;;;;;;;;;;;;;;;;5075724;28;19924;-81
2021/03/12 08:17:56;;;;;;;;;;;;;;;;;;5074246;28;19924;-79
2021/03/12 08:20:23;;;;;;;;;;;;;;;;;;5075626;28;19931;-79
2021/03/12 08:22:49;;;;;;;;;;;;;;;;;;5075628;28;19924;-79
2021/03/12 08:25:16;;;;;;;;;;;;;;;;;;5075897;28;20286;-78
2021/03/12 08:27:43;;;;;;;;;;;;;;;;;;5075119;28;20390;-81
2021/03/12 08:30:09;;;;;;;;;;;;;;;;;;5075149;28;19924;-78
2021/03/12 08:32:36;;;;;;;;;;;;;;;;;;5075497;28;20003;-80
2021/03/12 08:35:03;;;;;;;;;;;;;;;;;;5075330;28;20019;-77
2021/03/12 08:37:29;;;;;;;;;;;;;;;;;;5075585;28;20333;-77
2021/03/12 08:39:56;;;;;;;;;;;;;;;;;;5075820;28;20260;-75
2021/03/12 08:42:23;;;;;;;;;;;;;;;;;;5075137;28;19995;-75
2021/03/12 08:44:49;;;;;;;;;;;;;;;;;;5075391;28;20393;-77
2021/03/12 08:47:16;;;;;;;;;;;;;;;;;;5074745;28;20282;-76
2021/03/12 08:49:42;;;;;;;;;;;;;;;;;;5075055;28;20001;-76
2021/03/12 08:52:09;;;;;;;;;;;;;;;;;;5074720;28;20404;-76
2021/03/12 08:54:36;;;;;;;;;;;;;;;;;;5074656;28;19932;-79
2021/03/12 08:57:02;;;;;;;;;;;;;;;;;;5074720;28;19925;-79
2021/03/12 08:59:29;;;;;;;;;;;;;;;;;;5074908;28;19924;-78
2021/03/12 09:01:58;;;;;;;;;;;;;;;;;;5074626;28;19971;-77
2021/03/12 09:04:25;;;;;;;;;;;;;;;;;;5056907;28;20271;-76
2021/03/12 09:06:51;;;;;;;;;;;;;;;;;;5074675;28;19924;-77
2021/03/12 09:09:18;;;;;;;;;;;;;;;;;;5074246;28;19932;-76
2021/03/12 09:11:45;;;;;;;;;;;;;;;;;;5074159;28;19931;-76
2021/03/12 09:14:11;;;;;;;;;;;;;;;;;;5073923;28;19924;-79
2021/03/12 09:16:40;;;;;;;;;;;;;;;;;;5074228;28;19928;-77
2021/03/12 09:19:07;;;;;;;;;;;;;;;;;;5074478;28;19932;-76
2021/03/12 09:21:34;;;;;;;;;;;;;;;;;;5074813;28;19931;-81
2021/03/12 09:24:00;;;;;;;;;;;;;;;;;;5074748;28;19974;-79
2021/03/12 09:26:27;;;;;;;;;;;;;;;;;;5074593;28;19925;-75
2021/03/12 09:28:53;;;;;;;;;;;;;;;;;;5074751;28;20006;-75
2021/03/12 09:31:20;;;;;;;;;;;;;;;;;;5073853;28;19929;-75
2021/03/12 09:33:47;;;;;;;;;;;;;;;;;;5074464;28;19924;-77
2021/03/12 09:36:17;;;;;;;;;;;;;;;;;;5074778;28;20318;-77
2021/03/12 09:38:43;;;;;;;;;;;;;;;;;;5075566;28;19929;-77
2021/03/12 09:41:10;;;;;;;;;;;;;;;;;;5074261;28;19928;-76
2021/03/12 09:43:37;;;;;;;;;;;;;;;;;;5074132;28;19925;-76
2021/03/12 09:46:03;;;;;;;;;;;;;;;;;;5056204;28;19978;-76
2021/03/12 09:48:30;;;;;;;;;;;;;;;;;;5074552;28;19935;-76
2021/03/12 09:50:56;;;;;;;;;;;;;;;;;;5074304;28;19925;-76
2021/03/12 09:53:23;;;;;;;;;;;;;;;;;;5074315;28;19925;-76
2021/03/12 09:55:50;;;;;;;;;;;;;;;;;;5073981;28;19954;-76
2021/03/12 09:58:16;;;;;;;;;;;;;;;;;;5074153;28;19924;-76
2021/03/12 10:00:43;;;;;;;;;;;;;;;;;;5073996;28;19924;-76
2021/03/12 10:03:10;;;;;;;;;;;;;;;;;;5074209;28;19924;-76
2021/03/12 10:05:36;;;;;;;;;;;;;;;;;;5074265;28;19931;-76
2021/03/12 10:08:03;;;;;;;;;;;;;;;;;;5074331;28;19925;-76
2021/03/12 10:10:29;;;;;;;;;;;;;;;;;;5073863;28;19925;-76
2021/03/12 10:12:56;;;;;;;;;;;;;;;;;;5074125;28;20255;-76
2021/03/12 10:15:23;;;;;;;;;;;;;;;;;;5074083;28;19963;-76
2021/03/12 10:17:49;;;;;;;;;;;;;;;;;;5073820;28;20436;-76
2021/03/12 10:20:16;;;;;;;;;;;;;;;;;;5073656;28;19925;-76
2021/03/12 10:22:43;;;;;;;;;;;;;;;;;;5073726;28;19931;-76
2021/03/12 10:25:10;;;;;;;;;;;;;;;;;;5074052;28;19928;-80
2021/03/12 10:27:36;;;;;;;;;;;;;;;;;;5072354;28;20290;-76
2021/03/12 10:30:03;;;;;;;;;;;;;;;;;;5073574;28;19931;-76
2021/03/12 10:32:29;;;;;;;;;;;;;;;;;;5073413;28;19924;-76
2021/03/12 10:34:57;;;;;;;;;;;;;;;;;;5073779;28;19925;-75
2021/03/12 10:37:23;;;;;;;;;;;;;;;;;;5073730;28;19932;-76
2021/03/12 10:39:50;;;;;;;;;;;;;;;;;;5073109;28;20005;-75
2021/03/12 10:42:16;;;;;;;;;;;;;;;;;;5073759;28;19924;-76
2021/03/12 10:44:43;;;;;;;;;;;;;;;;;;5077143;28;19929;-76
2021/03/12 10:47:10;;;;;;;;;;;;;;;;;;5077303;28;19928;-74
2021/03/12 10:49:36;;;;;;;;;;;;;;;;;;5076955;28;20337;-75
2021/03/12 10:52:03;;;;;;;;;;;;;;;;;;5077613;28;19931;-75
2021/03/12 10:54:29;;;;;;;;;;;;;;;;;;5077587;28;19932;-75
2021/03/12 10:56:56;;;;;;;;;;;;;;;;;;5078066;28;19925;-75
2021/03/12 10:59:23;;;;;;;;;;;;;;;;;;5077773;28;20023;-75
2021/03/12 11:01:50;;;;;;;;;;;;;;;;;;5077664;28;20116;-76
2021/03/12 11:04:18;;;;;;;;;;;;;;;;;;5077396;28;20419;-76
2021/03/12 11:06:45;;;;;;;;;;;;;;;;;;5079186;28;19931;-75
2021/03/12 11:09:13;;;;;;;;;;;;;;;;;;5080759;28;19924;-76
2021/03/12 11:11:41;;;;;;;;;;;;;;;;;;5081315;28;19925;-76
2021/03/12 11:14:09;;;;;;;;;;;;;;;;;;5080376;28;19925;-75
2021/03/12 11:16:35;;;;;;;;;;;;;;;;;;5080918;28;19931;-76
2021/03/12 11:19:02;;;;;;;;;;;;;;;;;;5080154;28;19925;-75
2021/03/12 11:21:28;;;;;;;;;;;;;;;;;;5080243;28;19931;-75
2021/03/12 11:23:55;;;;;;;;;;;;;;;;;;5077829;28;19925;-79
2021/03/12 11:26:23;;;;;;;;;;;;;;;;;;5077514;28;19925;-78
2021/03/12 11:28:50;;;;;;;;;;;;;;;;;;5077954;28;20031;-76
2021/03/12 11:31:18;;;;;;;;;;;;;;;;;;5077444;28;19932;-77
2021/03/12 11:33:45;;;;;;;;;;;;;;;;;;5076852;28;19924;-76
2021/03/12 11:36:13;;;;;;;;;;;;;;;;;;5077352;28;19924;-76
2021/03/12 11:38:40;;;;;;;;;;;;;;;;;;5079089;28;20321;-79
2021/03/12 11:41:07;;;;;;;;;;;;;;;;;;5066300;28;19928;-77
2021/03/12 11:43:33;;;;;;;;;;;;;;;;;;5079098;28;19924;-76
2021/03/12 11:46:00;;;;;;;;;;;;;;;;;;5079551;28;20484;-78
2021/03/12 11:48:26;;;;;;;;;;;;;;;;;;5084170;28;19925;-77
2021/03/12 11:50:53;;;;;;;;;;;;;;;;;;5079467;28;19924;-76
2021/03/12 11:53:20;;;;;;;;;;;;;;;;;;5077628;28;19924;-78
2021/03/12 11:55:46;;;;;;;;;;;;;;;;;;5077339;28;20443;-77
2021/03/12 11:58:13;;;;;;;;;;;;;;;;;;5060111;28;20007;-78
2021/03/12 12:00:40;;;;;;;;;;;;;;;;;;5059273;28;19935;-79
2021/03/12 12:03:06;;;;;;;;;;;;;;;;;;5079107;28;20267;-77
2021/03/12 12:05:33;;;;;;;;;;;;;;;;;;5077187;28;20385;-80
2021/03/12 12:08:00;;;;;;;;;;;;;;;;;;5078998;28;20324;-75
2021/03/12 12:10:27;;;;;;;;;;;;;;;;;;5076102;28;19924;-76
2021/03/12 12:12:56;;;;;;;;;;;;;;;;;;5075956;28;19993;-80
2021/03/12 12:15:25;;;;;;;;;;;;;;;;;;5075759;28;20332;-77
2021/03/12 12:17:55;;;;;;;;;;;;;;;;;;5075880;28;20278;-78
2021/03/12 12:20:21;;;;;;;;;;;;;;;;;;5077059;28;20062;-77
2021/03/12 12:22:48;;;;;;;;;;;;;;;;;;5076288;28;19931;-75
2021/03/12 12:25:15;;;;;;;;;;;;;;;;;;5078033;28;19928;-78
2021/03/12 12:27:41;;;;;;;;;;;;;;;;;;5077018;28;19925;-79
2021/03/12 12:30:08;;;;;;;;;;;;;;;;;;5077189;28;19955;-77
2021/03/12 12:32:37;;;;;;;;;;;;;;;;;;5076147;28;20358;-76
2021/03/12 12:35:04;;;;;;;;;;;;;;;;;;5076655;28;19924;-76
2021/03/12 12:37:31;;;;;;;;;;;;;;;;;;5075615;28;19935;-77
2021/03/12 12:39:57;;;;;;;;;;;;;;;;;;5076966;28;19933;-75
2021/03/12 12:42:24;;;;;;;;;;;;;;;;;;5058786;28;20015;-76
2021/03/12 12:44:51;;;;;;;;;;;;;;;;;;5078048;28;19928;-75
2021/03/12 12:47:17;;;;;;;;;;;;;;;;;;5078979;28;20389;-77
2021/03/12 12:49:44;;;;;;;;;;;;;;;;;;5060107;28;19924;-76
2021/03/12 12:52:11;;;;;;;;;;;;;;;;;;5077360;28;19929;-77
2021/03/12 12:54:37;;;;;;;;;;;;;;;;;;5078085;28;19925;-76
2021/03/12 12:57:04;;;;;;;;;;;;;;;;;;5077868;28;19924;-77
2021/03/12 12:59:30;;;;;;;;;;;;;;;;;;5076567;28;20405;-78
2021/03/12 13:01:57;;;;;;;;;;;;;;;;;;5075769;28;19924;-77
2021/03/12 13:04:24;;;;;;;;;;;;;;;;;;5077029;28;19931;-76
2021/03/12 13:06:50;;;;;;;;;;;;;;;;;;5075324;28;20271;-76
2021/03/12 13:09:17;;;;;;;;;;;;;;;;;;5076049;28;19934;-76
2021/03/12 13:11:44;;;;;;;;;;;;;;;;;;5075225;28;19931;-77
2021/03/12 13:14:10;;;;;;;;;;;;;;;;;;5075303;28;20390;-77
2021/03/12 13:16:37;;;;;;;;;;;;;;;;;;5075472;28;19932;-77
2021/03/12 13:19:03;;;;;;;;;;;;;;;;;;5076343;28;19924;-76
2021/03/12 13:21:30;;;;;;;;;;;;;;;;;;5075512;28;20420;-76
2021/03/12 13:23:57;;;;;;;;;;;;;;;;;;5057601;28;19932;-77
2021/03/12 13:26:25;;;;;;;;;;;;;;;;;;5076135;28;19931;-77
2021/03/12 13:28:52;;;;;;;;;;;;;;;;;;5074782;28;19925;-77
2021/03/12 13:31:19;;;;;;;;;;;;;;;;;;5074334;28;20076;-77
2021/03/12 13:33:45;;;;;;;;;;;;;;;;;;5074775;28;19924;-77
2021/03/12 13:36:12;;;;;;;;;;;;;;;;;;5074564;28;20003;-77
2021/03/12 13:38:39;;;;;;;;;;;;;;;;;;5075334;28;19980;-77
2021/03/12 13:41:05;;;;;;;;;;;;;;;;;;5075183;28;19931;-77
2021/03/12 13:43:32;;;;;;;;;;;;;;;;;;5075791;28;20271;-76
2021/03/12 13:45:58;;;;;;;;;;;;;;;;;;5075135;28;20301;-77
2021/03/12 13:48:25;;;;;;;;;;;;;;;;;;5074439;28;19939;-77
2021/03/12 13:50:52;;;;;;;;;;;;;;;;;;5074390;28;19970;-77
2021/03/12 13:53:18;;;;;;;;;;;;;;;;;;5074256;28;19931;-77
2021/03/12 13:55:45;;;;;;;;;;;;;;;;;;5056257;28;19932;-77
2021/03/12 13:58:12;;;;;;;;;;;;;;;;;;5075968;28;19924;-77
2021/03/12 14:00:42;;;;;;;;;;;;;;;;;;5060147;28;19932;-77
2021/03/12 14:03:09;;;;;;;;;;;;;;;;;;5075814;28;20405;-76
2021/03/12 14:05:35;;;;;;;;;;;;;;;;;;5077901;28;19924;-77
2021/03/12 14:08:02;;;;;;;;;;;;;;;;;;5076296;28;19908;-76
2021/03/12 14:10:29;;;;;;;;;;;;;;;;;;5057451;28;19928;-76
2021/03/12 14:12:55;;;;;;;;;;;;;;;;;;5075969;28;19963;-76
2021/03/12 14:15:22;;;;;;;;;;;;;;;;;;5075116;28;19970;-76
2021/03/12 14:17:50;;;;;;;;;;;;;;;;;;5077082;28;20011;-75
2021/03/12 14:20:16;;;;;;;;;;;;;;;;;;5079002;28;20325;-76
2021/03/12 14:22:49;;;;;;;;;;;;;;;;;;5079511;28;20362;-76
2021/03/12 14:25:15;;;;;;;;;;;;;;;;;;5061238;28;19924;-76
2021/03/12 14:27:42;;;;;;;;;;;;;;;;;;5079232;28;19932;-76
2021/03/12 14:30:09;;;;;;;;;;;;;;;;;;5079601;28;20362;-76
2021/03/12 14:32:35;;;;;;;;;;;;;;;;;;5079389;28;19939;-76
2021/03/12 14:35:02;;;;;;;;;;;;;;;;;;5080289;28;19924;-77
2021/03/12 14:37:28;;;;;;;;;;;;;;;;;;5079764;28;19977;-77
2021/03/12 14:39:55;;;;;;;;;;;;;;;;;;5078582;28;19925;-76
2021/03/12 14:42:22;;;;;;;;;;;;;;;;;;5077663;28;19925;-77
2021/03/12 14:44:49;;;;;;;;;;;;;;;;;;5077590;28;19972;-76
2021/03/12 14:47:15;;;;;;;;;;;;;;;;;;5078313;28;19978;-77
2021/03/12 14:49:42;;;;;;;;;;;;;;;;;;5077324;28;20246;-77
2021/03/12 14:52:08;;;;;;;;;;;;;;;;;;5077013;28;19925;-77
2021/03/12 14:54:35;;;;;;;;;;;;;;;;;;5077520;28;19924;-79
2021/03/12 14:57:02;;;;;;;;;;;;;;;;;;5077334;28;19931;-76
2021/03/12 14:59:29;;;;;;;;;;;;;;;;;;5077956;28;20023;-76
2021/03/12 15:01:56;;;;;;;;;;;;;;;;;;5077928;28;19951;-76
2021/03/12 15:04:23;;;;;;;;;;;;;;;;;;5078312;28;19925;-77
2021/03/12 15:06:49;;;;;;;;;;;;;;;;;;5077491;28;19932;-78
2021/03/12 15:09:16;;;;;;;;;;;;;;;;;;5077030;28;19931;-78
2021/03/12 15:11:42;;;;;;;;;;;;;;;;;;5078074;28;19931;-78
2021/03/12 15:14:09;;;;;;;;;;;;;;;;;;5078168;28;19924;-77
2021/03/12 15:16:36;;;;;;;;;;;;;;;;;;5079458;28;19924;-78
2021/03/12 15:19:02;;;;;;;;;;;;;;;;;;5077818;28;19924;-78
2021/03/12 15:21:29;;;;;;;;;;;;;;;;;;5077235;28;19931;-78
2021/03/12 15:23:56;;;;;;;;;;;;;;;;;;5078608;28;19971;-78
2021/03/12 15:26:22;;;;;;;;;;;;;;;;;;5076746;28;20011;-77
2021/03/12 15:28:49;;;;;;;;;;;;;;;;;;5077047;28;19947;-78
2021/03/12 15:31:15;;;;;;;;;;;;;;;;;;5075924;28;19970;-78
2021/03/12 15:33:42;;;;;;;;;;;;;;;;;;5076761;28;19951;-77
2021/03/12 15:36:09;;;;;;;;;;;;;;;;;;5078133;28;19925;-77
2021/03/12 15:38:35;;;;;;;;;;;;;;;;;;5080046;28;19924;-78
2021/03/12 15:41:02;;;;;;;;;;;;;;;;;;5076908;28;19924;-78
2021/03/12 15:43:29;;;;;;;;;;;;;;;;;;5076090;28;20322;-78
2021/03/12 15:45:55;;;;;;;;;;;;;;;;;;5076513;28;19968;-78
2021/03/12 15:48:22;;;;;;;;;;;;;;;;;;5076691;28;19931;-78
2021/03/12 15:50:49;;;;;;;;;;;;;;;;;;5076478;28;19931;-78
2021/03/12 15:53:15;;;;;;;;;;;;;;;;;;5076120;28;19931;-78
2021/03/12 15:55:42;;;;;;;;;;;;;;;;;;5076421;28;19925;-76
2021/03/12 15:58:09;;;;;;;;;;;;;;;;;;5076261;28;19931;-79
2021/03/12 16:00:35;;;;;;;;;;;;;;;;;;5077481;28;19924;-82
2021/03/12 16:03:02;;;;;;;;;;;;;;;;;;5076457;28;19993;-76
2021/03/12 16:05:28;;;;;;;;;;;;;;;;;;5075990;28;19928;-77
2021/03/12 16:07:55;;;;;;;;;;;;;;;;;;5076868;28;19931;-78
2021/03/12 16:10:22;;;;;;;;;;;;;;;;;;5075759;28;20370;-77
2021/03/12 16:12:48;;;;;;;;;;;;;;;;;;5075788;28;19925;-79
2021/03/12 16:15:15;;;;;;;;;;;;;;;;;;5075992;28;19931;-77
2021/03/12 16:17:42;;;;;;;;;;;;;;;;;;5076753;28;19925;-79
2021/03/12 16:20:09;;;;;;;;;;;;;;;;;;5076725;28;19924;-79
2021/03/12 16:22:36;;;;;;;;;;;;;;;;;;5076189;28;19931;-78
2021/03/12 16:25:02;;;;;;;;;;;;;;;;;;5075717;28;19931;-76
2021/03/12 16:27:29;;;;;;;;;;;;;;;;;;5075371;28;19972;-78
2021/03/12 16:29:56;;;;;;;;;;;;;;;;;;5075486;28;19931;-77
2021/03/12 16:32:23;;;;;;;;;;;;;;;;;;5075803;28;19932;-77
2021/03/12 16:34:50;;;;;;;;;;;;;;;;;;5078756;28;19925;-77
2021/03/12 16:37:17;;;;;;;;;;;;;;;;;;5082458;28;20363;-78
2021/03/12 16:39:46;;;;;;;;;;;;;;;;;;5077810;28;19982;-78
2021/03/12 16:42:12;;;;;;;;;;;;;;;;;;5075186;28;19924;-78
2021/03/12 16:44:40;;;;;;;;;;;;;;;;;;5075043;28;19931;-78
2021/03/12 16:47:07;;;;;;;;;;;;;;;;;;5075215;28;19924;-78
2021/03/12 16:49:33;;;;;;;;;;;;;;;;;;5075163;28;19925;-78
2021/03/12 16:52:00;;;;;;;;;;;;;;;;;;5057071;28;19951;-78